Marathon, FL

5:20 AM EST on December 11, 2016 (GMT -0500)
Overseas Highway | | Change Station

Elev 29 ft 24.73 °N, 81.02 °W | Updated 9 seconds ago

Mostly Cloudy
Mostly Cloudy
73.0 °F
Feels Like 70 °F
N
11.8
Wind Variable Wind from ENE
Gusts 17.4 mph

Today
High -- | Low -- °F
--% Chance of Precip.
Yesterday
High -- | Low -- °F
Precip. -- in
Pressure 30.11 in
Visibility 10.0 miles
Clouds Few 800 ft
Few 1400 ft
Heat Index 70 °F
Dew Point 70 °F
Humidity 91%
Rainfall 0.24 in
Snow Depth Not available.
6:58 AM 5:36 PM
Waxing Gibbous, 90% visible
METAR KNQX 110953Z AUTO 06013KT 10SM FEW008 FEW014 22/21 A3011 RMK AO2 SLP196 T02170206 $
Pressure 30.11 in
Visibility 10.0 miles
Clouds Few 800 ft
Few 1400 ft
Heat Index 70 °F
Dew Point 70 °F
Humidity 91%
Rainfall 0.24 in
Snow Depth Not available.
6:58 AM 5:36 PM
Waxing Gibbous, 90% visible
METAR KNQX 110953Z AUTO 06013KT 10SM FEW008 FEW014 22/21 A3011 RMK AO2 SLP196 T02170206 $

10-Day Weather Forecast

Almanac

Astronomy

Dec. 11, 2016 Rise Set
Actual Time
Civil Twilight
Nautical Twilight
Astronomical Twilight
Moon
Length of Visible Light
Length of Day
Tomorrow will be .
, % of the Moon is Illuminated

Today's Extremes

State Highs State Lows

Community

WunderPhotos

Upload Photos

1,956,702 photos uploaded!

WunderBlog® & News

Nearby

Air Quality

  Air Quality AQ Index Pollutant
Not available.

Snow Depth

Station Depth Elevation

Earthquake Activity

City Distance Mag. Time & Date
Minimum magnitude displayed is 2.5.

Coastal Water Temperatures

Place Temperature

Stations

Nearby Weather Stations

Station Location Temp. Windchill Dew Point Humidity Wind Precip. Elev Updated Type
                   

Watches & Warnings

There are currently no watches in effect.